Lee, Illinois
Current Conditions -  °F | °C
As of 4:55 PM on Tuesday 21 Oct 2014 (Local Time) from KRPJ Reporting Station
Broken Clouds Broken Clouds  
Wind Chill: 52°   Ceiling: 3700
Heat Index: 52°   Visibility: 10mi
Dew Point: 38°   Wind: 10mph
Humidity: 59%   Direction: 80°E
Pressure: 30.21"   Gusts: NA
Location:  41.8°N, 88.94°W
Report Text: KRPJ 212155Z AUTO 08009KT 10SM BKN037 11/03 A3021 RMK AO2 T01100032
Loading
Personal Weather Stations






























Interactive Weather Map
Tropical Storm Tracking
New forecast layout! Learn more

10-Day Weather Forecast

Advertisements
Track Severe Weather on mobile